Burton, United Kingdom
Current Conditions -  °F | °C
As of 2:50 AM on Monday 22 Dec 2014 (Local Time) from EGXP Reporting Station
Overcast Overcast  
Wind Chill: 54°   Ceiling: 2300
Heat Index: 54°   Visibility: 6mi
Dew Point: 50°   Wind: 25mph
Humidity: 88%   Direction: 240°WSW
Pressure: 29.85"   Gusts: NA
Location:  53.27°N, 0.57°W
Report Text: EGXP 220250Z AUTO 24022KT 9999 // OVC023/// 12/10 Q1011
Loading
Personal Weather Stations






























Interactive Weather Map New forecast layout! Learn more

10-Day Weather Forecast

Advertisements
Track Severe Weather on mobile